| time (UTC) | temp F | wind direction | speed knots | gust knots | rain 1hr in | rain 24hr in | rain mn in | humidity % | barometer mb |
| 20260508023736 | 44 | 1 | 0.0 | 0.9 | 0.00 | 0.01 | 0.00 | 95 | 1017.7 |
| 20260508022837 | 44 | 0 | 0.0 | 0.0 | 0.00 | 0.01 | 0.00 | 95 | 1017.6 |
| 20260508021936 | 44 | 0 | 0.0 | 0.0 | 0.00 | 0.01 | 0.00 | 94 | 1017.8 |
| 20260508021037 | 44 | 0 | 0.0 | 0.0 | 0.00 | 0.01 | 0.00 | 93 | 1017.8 |
| 20260508020137 | 44 | 0 | 0.0 | 0.0 | 0.00 | 0.01 | 0.00 | 93 | 1017.8 |
| 20260508015236 | 44 | 0 | 0.0 | 0.0 | 0.00 | 0.01 | 0.00 | 92 | 1017.7 |
| 20260508013436 | 44 | 0 | 0.0 | 0.0 | 0.00 | 0.01 | 0.00 | 91 | 1017.7 |
| 20260508012537 | 44 | 0 | 0.0 | 0.0 | 0.00 | 0.01 | 0.00 | 91 | 1017.6 |
| 20260508011637 | 44 | 0 | 0.0 | 0.0 | 0.00 | 0.01 | 0.00 | 90 | 1017.6 |
| 20260508010736 | 45 | 0 | 0.0 | 0.0 | 0.00 | 0.01 | 0.00 | 90 | 1017.5 |
| 20260508004937 | 45 | 0 | 0.0 | 0.0 | 0.00 | 0.01 | 0.00 | 89 | 1017.6 |
| 20260508004036 | 46 | 314 | 0.0 | 0.9 | 0.00 | 0.01 | 0.00 | 89 | 1017.6 |
| 20260508002237 | 46 | 309 | 0.9 | 2.6 | 0.00 | 0.01 | 0.00 | 89 | 1017.5 |
| 20260508001336 | 46 | 292 | 0.0 | 0.9 | 0.00 | 0.01 | 0.00 | 87 | 1017.6 |
| 20260508000436 | 45 | 0 | 0.0 | 0.0 | 0.00 | 0.01 | 0.00 | 86 | 1017.5 |
| 20260507235537 | 45 | 0 | 0.0 | 0.0 | 0.00 | 0.01 | 0.00 | 85 | 1017.7 |
| 20260507234636 | 45 | 0 | 0.0 | 0.0 | 0.00 | 0.01 | 0.00 | 85 | 1017.7 |
| 20260507233737 | 45 | 0 | 0.0 | 0.0 | 0.00 | 0.01 | 0.00 | 84 | 1017.7 |
| 20260507232836 | 45 | 0 | 0.0 | 0.0 | 0.00 | 0.01 | 0.00 | 83 | 1017.7 |
| 20260507231936 | 45 | 0 | 0.0 | 0.0 | 0.00 | 0.01 | 0.00 | 83 | 1017.7 |
| 20260507231036 | 45 | 0 | 0.0 | 0.0 | 0.00 | 0.01 | 0.00 | 82 | 1017.9 |
| 20260507230136 | 45 | 0 | 0.0 | 0.0 | 0.00 | 0.01 | 0.00 | 81 | 1017.9 |
| 20260507224336 | 45 | 0 | 0.0 | 0.0 | 0.00 | 0.01 | 0.00 | 80 | 1018.1 |
| 20260507223436 | 45 | 291 | 0.0 | 1.7 | 0.00 | 0.01 | 0.00 | 79 | 1017.9 |
| 20260507222536 | 45 | 291 | 0.0 | 1.7 | 0.00 | 0.01 | 0.00 | 78 | 1017.8 |
| 20260507221636 | 46 | 0 | 0.0 | 0.0 | 0.00 | 0.01 | 0.00 | 78 | 1018.0 |
| 20260507220736 | 46 | 281 | 0.0 | 0.9 | 0.00 | 0.01 | 0.00 | 77 | 1017.8 |
| 20260507215836 | 47 | 289 | 0.0 | 2.6 | 0.00 | 0.01 | 0.01 | 77 | 1017.7 |
| 20260507214936 | 47 | 301 | 0.9 | 2.6 | 0.00 | 0.01 | 0.01 | 78 | 1017.6 |
| 20260507214036 | 47 | 304 | 1.7 | 3.5 | 0.00 | 0.01 | 0.01 | 77 | 1017.5 |
| 20260507213136 | 47 | 292 | 0.0 | 3.5 | 0.00 | 0.01 | 0.01 | 77 | 1017.4 |
| 20260507212236 | 47 | 303 | 0.0 | 7.0 | 0.00 | 0.01 | 0.01 | 77 | 1017.3 |
| 20260507211337 | 47 | 318 | 0.0 | 6.1 | 0.00 | 0.01 | 0.01 | 77 | 1017.3 |
| 20260507210436 | 47 | 333 | 1.7 | 3.5 | 0.00 | 0.01 | 0.01 | 77 | 1017.2 |
| 20260507205536 | 47 | 317 | 0.9 | 4.3 | 0.00 | 0.01 | 0.01 | 76 | 1017.2 |
| 20260507204636 | 47 | 339 | 0.0 | 2.6 | 0.00 | 0.01 | 0.01 | 74 | 1017.1 |
| 20260507203737 | 47 | 325 | 0.0 | 3.5 | 0.00 | 0.01 | 0.01 | 73 | 1017.1 |
| 20260507202836 | 47 | 299 | 0.0 | 3.5 | 0.00 | 0.01 | 0.01 | 73 | 1017.0 |
| 20260507200136 | 48 | 312 | 0.9 | 3.5 | 0.00 | 0.01 | 0.01 | 69 | 1016.9 |
| 20260507195236 | 48 | 333 | 0.0 | 3.5 | 0.00 | 0.01 | 0.01 | 68 | 1016.8 |
| 20260507194336 | 48 | 311 | 0.0 | 3.5 | 0.00 | 0.02 | 0.01 | 66 | 1016.8 |
| 20260507192536 | 49 | 292 | 0.0 | 3.5 | 0.00 | 0.08 | 0.01 | 64 | 1016.7 |
| 20260507191636 | 49 | 292 | 0.9 | 4.3 | 0.00 | 0.09 | 0.01 | 64 | 1016.7 |
| 20260507190736 | 49 | 292 | 1.7 | 4.3 | 0.00 | 0.12 | 0.01 | 62 | 1016.5 |
| 20260507185836 | 50 | 292 | 0.9 | 5.2 | 0.00 | 0.15 | 0.01 | 61 | 1016.5 |
| 20260507184936 | 50 | 292 | 0.0 | 7.0 | 0.00 | 0.17 | 0.01 | 60 | 1016.2 |
| 20260507184036 | 50 | 292 | 0.9 | 2.6 | 0.00 | 0.17 | 0.01 | 57 | 1016.0 |
| 20260507183136 | 50 | 302 | 0.0 | 11.3 | 0.00 | 0.17 | 0.01 | 55 | 1016.2 |
| 20260507182236 | 51 | 303 | 0.0 | 5.2 | 0.00 | 0.17 | 0.01 | 52 | 1016.0 |
| 20260507181336 | 51 | 323 | 1.7 | 6.1 | 0.00 | 0.17 | 0.01 | 50 | 1015.9 |
| 20260507180436 | 52 | 306 | 0.0 | 3.5 | 0.00 | 0.17 | 0.01 | 47 | 1016.0 |
| 20260507175536 | 52 | 305 | 1.7 | 5.2 | 0.00 | 0.17 | 0.01 | 47 | 1015.8 |
| 20260507174636 | 53 | 319 | 1.7 | 4.3 | 0.00 | 0.17 | 0.01 | 46 | 1015.8 |
| 20260507173736 | 54 | 323 | 0.9 | 2.6 | 0.00 | 0.17 | 0.01 | 45 | 1015.7 |
| 20260507171036 | 53 | 310 | 0.9 | 4.3 | 0.00 | 0.17 | 0.01 | 45 | 1015.5 |
| 20260507170136 | 54 | 314 | 1.7 | 6.1 | 0.00 | 0.17 | 0.01 | 42 | 1015.6 |
| 20260507165236 | 54 | 334 | 1.7 | 7.0 | 0.00 | 0.17 | 0.01 | 41 | 1015.4 |
| 20260507164336 | 54 | 314 | 1.7 | 9.6 | 0.00 | 0.17 | 0.01 | 42 | 1015.4 |
| 20260507163436 | 55 | 317 | 1.7 | 5.2 | 0.00 | 0.17 | 0.01 | 39 | 1015.2 |
| 20260507162536 | 57 | 313 | 1.7 | 8.7 | 0.00 | 0.17 | 0.01 | 36 | 1015.2 |
| 20260507161637 | 60 | 314 | 0.9 | 7.0 | 0.00 | 0.17 | 0.01 | 29 | 1015.1 |
| 20260507160736 | 60 | 321 | 0.9 | 3.5 | 0.00 | 0.17 | 0.01 | 27 | 1015.1 |
| 20260507155836 | 60 | 304 | 0.9 | 4.3 | 0.00 | 0.17 | 0.01 | 27 | 1014.8 |
| 20260507154936 | 59 | 312 | 0.0 | 3.5 | 0.00 | 0.17 | 0.01 | 30 | 1014.9 |
| 20260507153136 | 58 | 283 | 1.7 | 7.8 | 0.00 | 0.17 | 0.01 | 33 | 1014.9 |
| 20260507151336 | 59 | 307 | 1.7 | 7.0 | 0.00 | 0.17 | 0.01 | 33 | 1014.9 |
| 20260507145536 | 58 | 312 | 0.0 | 8.7 | 0.00 | 0.17 | 0.01 | 35 | 1014.6 |
| 20260507144636 | 60 | 315 | 1.7 | 7.0 | 0.00 | 0.17 | 0.01 | 32 | 1014.7 |
| 20260507143737 | 59 | 311 | 1.7 | 5.2 | 0.00 | 0.17 | 0.01 | 35 | 1014.6 |
| 20260507141036 | 61 | 316 | 1.7 | 6.1 | 0.00 | 0.17 | 0.01 | 28 | 1014.6 |
| 20260507140136 | 61 | 324 | 0.9 | 4.3 | 0.00 | 0.17 | 0.01 | 27 | 1014.5 |
| 20260507135237 | 62 | 354 | 1.7 | 4.3 | 0.00 | 0.18 | 0.01 | 25 | 1014.4 |
| 20260507134336 | 62 | 292 | 0.0 | 4.3 | 0.00 | 0.18 | 0.01 | 26 | 1014.5 |
| 20260507132536 | 61 | 313 | 1.7 | 7.0 | 0.00 | 0.19 | 0.01 | 26 | 1014.6 |
| 20260507130736 | 63 | 315 | 0.0 | 7.0 | 0.00 | 0.19 | 0.01 | 22 | 1014.3 |
| 20260507125836 | 64 | 271 | 1.7 | 7.0 | 0.00 | 0.19 | 0.01 | 26 | 1014.3 |
| 20260507124036 | 61 | 291 | 2.6 | 7.0 | 0.00 | 0.19 | 0.01 | 26 | 1014.3 |
| 20260507123136 | 61 | 308 | 0.9 | 6.1 | 0.00 | 0.19 | 0.01 | 29 | 1014.3 |
| 20260507121336 | 61 | 314 | 1.7 | 5.2 | 0.00 | 0.19 | 0.01 | 26 | 1014.2 |
| 20260507115536 | 61 | 307 | 1.7 | 3.5 | 0.00 | 0.19 | 0.01 | 29 | 1014.1 |
| 20260507114636 | 60 | 301 | 0.9 | 6.1 | 0.00 | 0.19 | 0.01 | 31 | 1014.2 |
| 20260507113736 | 60 | 307 | 0.9 | 6.1 | 0.00 | 0.19 | 0.01 | 29 | 1014.3 |
| 20260507112836 | 61 | 332 | 1.7 | 4.3 | 0.00 | 0.19 | 0.01 | 30 | 1014.2 |
| 20260507111936 | 60 | 209 | 1.7 | 4.3 | 0.00 | 0.19 | 0.01 | 28 | 1014.2 |
| 20260507111036 | 60 | 316 | 0.9 | 3.5 | 0.00 | 0.19 | 0.01 | 30 | 1014.0 |
| 20260507110136 | 61 | 336 | 1.7 | 3.5 | 0.00 | 0.19 | 0.01 | 28 | 1014.1 |
| 20260507104336 | 59 | 309 | 0.9 | 7.0 | 0.00 | 0.19 | 0.01 | 31 | 1014.0 |
| 20260507103436 | 60 | 313 | 1.7 | 7.0 | 0.00 | 0.19 | 0.01 | 28 | 1014.0 |
| 20260507102536 | 62 | 302 | 0.9 | 6.1 | 0.00 | 0.19 | 0.01 | 25 | 1014.0 |
| 20260507101636 | 62 | 299 | 1.7 | 4.3 | 0.00 | 0.19 | 0.01 | 27 | 1013.9 |
| 20260507100736 | 63 | 314 | 1.7 | 6.1 | 0.00 | 0.19 | 0.01 | 25 | 1013.9 |
| 20260507095836 | 63 | 271 | 1.7 | 7.0 | 0.00 | 0.19 | 0.01 | 25 | 1013.8 |
| 20260507094936 | 64 | 288 | 2.6 | 7.0 | 0.00 | 0.19 | 0.01 | 24 | 1013.7 |
| 20260507094036 | 62 | 330 | 1.7 | 5.2 | 0.00 | 0.19 | 0.01 | 27 | 1013.6 |
| 20260507092236 | 62 | 329 | 0.9 | 7.0 | 0.00 | 0.19 | 0.01 | 29 | 1013.5 |
| 20260507091336 | 60 | 302 | 0.9 | 7.0 | 0.00 | 0.19 | 0.01 | 32 | 1013.4 |
| 20260507090436 | 60 | 308 | 1.7 | 3.5 | 0.00 | 0.19 | 0.01 | 30 | 1013.6 |
| 20260507084636 | 61 | 319 | 1.7 | 12.2 | 0.00 | 0.19 | 0.01 | 30 | 1013.3 |
| 20260507083736 | 62 | 315 | 2.6 | 12.2 | 0.00 | 0.19 | 0.01 | 26 | 1013.4 |
| 20260507082836 | 63 | 303 | 4.3 | 8.7 | 0.00 | 0.19 | 0.01 | 25 | 1013.3 |
| 20260507081036 | 60 | 330 | 1.7 | 7.0 | 0.00 | 0.19 | 0.01 | 39 | 1013.1 |
| 20260507080136 | 57 | 306 | 1.7 | 4.3 | 0.00 | 0.19 | 0.01 | 43 | 1013.1 |
| 20260507075236 | 57 | 303 | 1.7 | 4.3 | 0.00 | 0.19 | 0.01 | 44 | 1013.0 |
| 20260507073436 | 57 | 320 | 0.9 | 3.5 | 0.00 | 0.19 | 0.01 | 46 | 1013.1 |
| 20260507072536 | 57 | 315 | 0.9 | 3.5 | 0.00 | 0.19 | 0.01 | 45 | 1012.9 |
| 20260507071636 | 57 | 304 | 0.9 | 3.5 | 0.00 | 0.19 | 0.01 | 46 | 1012.9 |
| 20260507070736 | 56 | 292 | 0.9 | 2.6 | 0.00 | 0.19 | 0.01 | 46 | 1013.0 |
| 20260507065836 | 57 | 333 | 0.9 | 5.2 | 0.00 | 0.19 | 0.01 | 44 | 1012.8 |
| 20260507064936 | 59 | 347 | 0.9 | 3.5 | 0.00 | 0.19 | 0.01 | 43 | 1012.6 |
| 20260507063136 | 60 | 305 | 1.7 | 6.1 | 0.00 | 0.19 | 0.01 | 42 | 1012.4 |
| 20260507062236 | 60 | 334 | 0.0 | 4.3 | 0.00 | 0.19 | 0.01 | 42 | 1012.5 |
| 20260507061336 | 62 | 314 | 0.9 | 5.2 | 0.00 | 0.19 | 0.01 | 41 | 1012.3 |
| 20260507060436 | 62 | 328 | 1.7 | 3.5 | 0.00 | 0.19 | 0.01 | 46 | 1012.2 |
| 20260507055536 | 61 | 316 | 0.9 | 7.8 | 0.00 | 0.19 | 0.01 | 48 | 1012.1 |
| 20260507054636 | 60 | 343 | 1.7 | 5.2 | 0.00 | 0.19 | 0.01 | 52 | 1012.0 |
| 20260507053736 | 59 | 281 | 0.0 | 4.3 | 0.00 | 0.19 | 0.01 | 58 | 1011.7 |
| 20260507052836 | 58 | 307 | 0.0 | 4.3 | 0.00 | 0.19 | 0.01 | 64 | 1011.7 |
| 20260507051936 | 58 | 269 | 0.9 | 4.3 | 0.00 | 0.19 | 0.01 | 71 | 1011.6 |
| 20260507051036 | 57 | 286 | 0.9 | 3.5 | 0.00 | 0.19 | 0.01 | 87 | 1011.6 |
| 20260507050136 | 56 | 315 | 1.7 | 3.5 | 0.00 | 0.19 | 0.01 | 99 | 1011.7 |
| 20260507045236 | 55 | 314 | 1.7 | 3.5 | 0.00 | 0.19 | 0.01 | 99 | 1011.4 |
| 20260507044336 | 53 | 334 | 0.0 | 6.1 | 0.00 | 0.19 | 0.01 | 99 | 1011.2 |
| 20260507043436 | 53 | 318 | 1.7 | 4.3 | 0.00 | 0.19 | 0.01 | 99 | 1011.2 |
| 20260507042536 | 52 | 295 | 1.7 | 3.5 | 0.00 | 0.19 | 0.01 | 99 | 1011.1 |
| 20260507041636 | 50 | 339 | 1.7 | 8.7 | 0.00 | 0.19 | 0.01 | 99 | 1011.0 |
| 20260507040736 | 50 | 72 | 1.7 | 4.3 | 0.01 | 0.19 | 0.01 | 99 | 1011.0 |
| 20260507034936 | 50 | 252 | 0.0 | 2.6 | 0.01 | 0.19 | 0.01 | 99 | 1010.8 |
| 20260507034036 | 50 | 292 | 0.9 | 7.8 | 0.01 | 0.19 | 0.01 | 99 | 1011.0 |
| 20260507033136 | 50 | 280 | 0.9 | 4.3 | 0.01 | 0.19 | 0.01 | 99 | 1010.7 |
| 20260507032235 | 50 | 289 | 0.9 | 3.5 | 0.01 | 0.19 | 0.01 | 99 | 1010.7 |
| 20260507031336 | 50 | 281 | 0.0 | 7.0 | 0.01 | 0.19 | 0.01 | 99 | 1010.9 |